createdAt,value
2023-05-04T00:00:14.972Z,44.61
2023-05-04T00:01:14.955Z,44.63
2023-05-04T00:02:15.040Z,44.62
2023-05-04T00:03:15.035Z,44.50
2023-05-04T00:04:15.058Z,44.61
2023-05-04T00:05:14.985Z,44.24
2023-05-04T00:06:14.992Z,44.55
2023-05-04T00:07:15.011Z,44.79
2023-05-04T00:08:15.015Z,44.78
2023-05-04T00:09:15.021Z,44.82
2023-05-04T00:10:15.036Z,44.75
2023-05-04T00:11:15.060Z,44.94
2023-05-04T00:12:15.090Z,44.61
2023-05-04T00:13:15.200Z,44.69
2023-05-04T00:14:15.134Z,44.69
2023-05-04T00:15:15.160Z,44.38
2023-05-04T00:16:15.255Z,44.30
2023-05-04T00:17:15.264Z,44.26
2023-05-04T00:18:15.253Z,44.05
2023-05-04T00:19:15.281Z,44.17
2023-05-04T00:20:15.303Z,44.42
2023-05-04T00:21:15.355Z,44.52
2023-05-04T00:22:15.352Z,44.62
2023-05-04T00:23:15.383Z,44.58
2023-05-04T00:24:15.424Z,44.71
2023-05-04T00:25:15.465Z,44.84
2023-05-04T00:26:15.509Z,44.92
2023-05-04T00:27:15.507Z,44.98
2023-05-04T00:28:15.553Z,44.71
2023-05-04T00:29:15.595Z,44.59
2023-05-04T00:30:15.635Z,44.81
2023-05-04T00:31:15.719Z,44.91
2023-05-04T00:32:15.721Z,44.96
2023-05-04T00:33:15.759Z,45.20
2023-05-04T00:34:15.817Z,45.29
2023-05-04T00:35:15.904Z,45.34
2023-05-04T00:36:15.931Z,45.53
2023-05-04T00:37:16.005Z,45.38
2023-05-04T00:38:16.056Z,45.68
2023-05-04T00:39:16.118Z,45.83
2023-05-04T00:40:16.168Z,45.72
2023-05-04T00:41:16.206Z,45.93
2023-05-04T00:42:16.301Z,45.76
2023-05-04T00:43:16.307Z,45.66
2023-05-04T00:44:16.352Z,45.70
2023-05-04T00:45:16.458Z,45.62
2023-05-04T00:46:16.483Z,45.45
2023-05-04T00:47:16.520Z,45.51
2023-05-04T00:48:16.517Z,45.54
2023-05-04T00:49:16.555Z,45.61
2023-05-04T00:50:16.598Z,45.63
2023-05-04T00:51:16.664Z,45.81
2023-05-04T00:52:16.693Z,45.61
2023-05-04T00:53:16.730Z,45.59
2023-05-04T00:54:16.765Z,45.45
2023-05-04T00:55:16.832Z,45.56
2023-05-04T00:56:16.897Z,45.52
2023-05-04T00:57:16.931Z,45.83
2023-05-04T00:58:16.981Z,46.13
2023-05-04T00:59:17.024Z,46.10
2023-05-04T01:00:17.071Z,45.98
2023-05-04T01:01:17.157Z,45.93
2023-05-04T01:02:17.144Z,46.24
2023-05-04T01:03:17.263Z,46.15
2023-05-04T01:04:17.202Z,46.01
2023-05-04T01:05:17.245Z,46.05
2023-05-04T01:06:17.294Z,46.25
2023-05-04T01:07:17.349Z,46.04
2023-05-04T01:08:17.395Z,46.01
2023-05-04T01:09:17.458Z,46.10
2023-05-04T01:10:17.540Z,46.11
2023-05-04T01:11:17.570Z,46.14
2023-05-04T01:12:17.619Z,46.12
2023-05-04T01:13:17.713Z,46.20
2023-05-04T01:14:17.713Z,46.23
2023-05-04T01:15:17.791Z,46.11
2023-05-04T01:16:17.885Z,46.00
2023-05-04T01:17:17.938Z,45.84
2023-05-04T01:18:17.966Z,45.86
2023-05-04T01:19:18.021Z,46.03
2023-05-04T01:20:18.068Z,46.24
2023-05-04T01:21:18.107Z,46.30
2023-05-04T01:22:18.177Z,46.28
2023-05-04T01:23:18.212Z,46.63
2023-05-04T01:24:18.274Z,46.78
2023-05-04T01:25:18.298Z,46.69
2023-05-04T01:26:18.341Z,46.79
2023-05-04T01:27:18.367Z,46.83
2023-05-04T01:28:18.396Z,46.73
2023-05-04T01:29:18.421Z,46.67
2023-05-04T01:30:18.446Z,46.55
2023-05-04T01:31:18.530Z,46.50
2023-05-04T01:32:18.490Z,46.63
2023-05-04T01:33:18.505Z,46.79
2023-05-04T01:34:18.524Z,46.58
2023-05-04T01:35:18.502Z,46.39
2023-05-04T01:36:18.516Z,46.31
2023-05-04T01:37:18.523Z,46.37
2023-05-04T01:38:18.513Z,46.38
2023-05-04T01:39:18.534Z,46.55
2023-05-04T01:40:18.518Z,46.64
2023-05-04T01:41:18.550Z,46.49
2023-05-04T01:42:18.569Z,46.50
2023-05-04T01:43:18.542Z,46.16
2023-05-04T01:44:18.558Z,46.21
2023-05-04T01:45:18.543Z,46.40
2023-05-04T01:46:18.572Z,46.69
2023-05-04T01:47:18.549Z,46.65
2023-05-04T01:48:18.581Z,46.82
2023-05-04T01:49:18.566Z,47.07
2023-05-04T01:50:18.568Z,47.19
2023-05-04T01:51:18.606Z,47.26
2023-05-04T01:52:18.619Z,47.25
2023-05-04T01:53:18.601Z,47.02
2023-05-04T01:54:18.609Z,46.87
2023-05-04T01:55:18.621Z,46.99
2023-05-04T01:56:18.633Z,46.96
2023-05-04T01:57:18.732Z,47.09
2023-05-04T01:58:18.709Z,47.12
2023-05-04T01:59:18.667Z,46.99
2023-05-04T02:00:18.641Z,47.21
2023-05-04T02:01:18.736Z,47.27
2023-05-04T02:02:18.686Z,47.24
2023-05-04T02:03:18.765Z,47.08
2023-05-04T02:04:18.680Z,47.11
2023-05-04T02:05:18.684Z,47.18
2023-05-04T02:06:18.695Z,47.04
2023-05-04T02:07:18.698Z,46.98
2023-05-04T02:08:18.717Z,46.77
2023-05-04T02:09:18.735Z,46.84
2023-05-04T02:10:18.732Z,46.95
2023-05-04T02:11:18.769Z,46.85
2023-05-04T02:12:18.784Z,46.91
2023-05-04T02:13:18.798Z,47.04
2023-05-04T02:14:18.801Z,47.08
2023-05-04T02:15:18.847Z,47.12
2023-05-04T02:16:18.897Z,47.25
2023-05-04T02:17:18.893Z,47.22
2023-05-04T02:18:18.921Z,47.48
2023-05-04T02:19:18.950Z,47.46
2023-05-04T02:20:18.991Z,47.56
2023-05-04T02:21:19.020Z,47.46
2023-05-04T02:22:19.043Z,47.32
2023-05-04T02:23:19.066Z,47.31
2023-05-04T02:24:19.110Z,47.34
2023-05-04T02:25:19.152Z,47.42
2023-05-04T02:26:19.169Z,47.63
2023-05-04T02:27:19.208Z,47.31
2023-05-04T02:28:19.220Z,47.19
2023-05-04T02:29:19.264Z,47.26
2023-05-04T02:30:19.307Z,47.23
2023-05-04T02:31:19.344Z,47.16
2023-05-04T02:32:19.383Z,47.42
2023-05-04T02:33:19.407Z,47.52
2023-05-04T02:34:19.414Z,47.29
2023-05-04T02:35:19.433Z,47.33
2023-05-04T02:36:19.468Z,47.34
2023-05-04T02:37:19.484Z,47.34
2023-05-04T02:38:19.497Z,47.19
2023-05-04T02:39:19.534Z,46.96
2023-05-04T02:40:19.546Z,46.88
2023-05-04T02:41:19.605Z,47.11
2023-05-04T02:42:19.650Z,47.27
2023-05-04T02:43:19.663Z,47.40
2023-05-04T02:44:19.724Z,47.53
2023-05-04T02:45:19.862Z,47.50
2023-05-04T02:46:19.908Z,47.65
2023-05-04T02:47:19.848Z,47.51
2023-05-04T02:48:19.870Z,47.32
2023-05-04T02:49:19.903Z,47.52
2023-05-04T02:50:19.998Z,47.25
2023-05-04T02:51:19.977Z,47.16
2023-05-04T02:52:20.030Z,47.37
2023-05-04T02:53:20.076Z,47.42
2023-05-04T02:54:20.124Z,47.24
2023-05-04T02:55:20.135Z,47.46
2023-05-04T02:56:20.189Z,47.61
2023-05-04T02:57:20.241Z,47.78
2023-05-04T02:58:20.287Z,47.72
2023-05-04T02:59:20.346Z,47.67
2023-05-04T03:00:20.386Z,47.84
2023-05-04T03:01:20.489Z,47.55
2023-05-04T03:02:20.531Z,47.75
2023-05-04T03:03:20.520Z,47.73
2023-05-04T03:04:20.568Z,47.55
2023-05-04T03:05:20.610Z,47.38
2023-05-04T03:06:20.644Z,47.38
2023-05-04T03:07:20.801Z,47.37
2023-05-04T03:08:20.832Z,47.44
2023-05-04T03:09:20.967Z,47.51
2023-05-04T03:10:20.877Z,47.79
2023-05-04T03:11:20.933Z,47.99
2023-05-04T03:12:21.008Z,48.20
2023-05-04T03:13:21.077Z,48.04
2023-05-04T03:14:21.117Z,47.89
2023-05-04T03:15:21.175Z,47.90
2023-05-04T03:16:21.297Z,47.83
2023-05-04T03:17:21.322Z,47.81
2023-05-04T03:18:21.324Z,47.61
2023-05-04T03:19:21.346Z,47.70
2023-05-04T03:20:21.356Z,47.88
2023-05-04T03:21:21.426Z,47.96
2023-05-04T03:22:21.440Z,47.83
2023-05-04T03:23:21.431Z,47.95
2023-05-04T03:24:21.443Z,47.83
2023-05-04T03:25:21.500Z,47.99
2023-05-04T03:26:21.575Z,48.19
2023-05-04T03:27:21.586Z,48.35
2023-05-04T03:28:21.638Z,48.41
2023-05-04T03:29:21.673Z,48.26
2023-05-04T03:30:21.740Z,48.39
2023-05-04T03:31:21.808Z,47.98
2023-05-04T03:32:21.804Z,47.93
2023-05-04T03:33:21.899Z,47.95
2023-05-04T03:34:21.934Z,47.94
2023-05-04T03:35:24.977Z,48.39
2023-05-04T03:36:21.888Z,48.36
2023-05-04T03:37:21.880Z,48.46
2023-05-04T03:38:21.867Z,48.54
2023-05-04T03:39:21.896Z,48.70
2023-05-04T03:40:21.881Z,48.39
2023-05-04T03:41:21.844Z,48.47
2023-05-04T03:42:21.843Z,48.65
2023-05-04T03:43:21.840Z,48.67
2023-05-04T03:44:21.822Z,48.70
2023-05-04T03:45:21.834Z,48.59
2023-05-04T03:46:21.901Z,48.57
2023-05-04T03:47:21.830Z,48.54
2023-05-04T03:48:21.841Z,48.67
2023-05-04T03:49:21.809Z,48.84
2023-05-04T03:50:21.792Z,48.76
2023-05-04T03:51:21.788Z,48.71
2023-05-04T03:52:21.789Z,48.33
2023-05-04T03:53:21.761Z,48.48
2023-05-04T03:54:21.786Z,48.47
2023-05-04T03:55:21.767Z,48.36
2023-05-04T03:56:21.736Z,48.41
2023-05-04T03:57:21.754Z,48.26
2023-05-04T03:58:21.756Z,48.12
2023-05-04T03:59:21.723Z,47.89
2023-05-04T04:00:21.730Z,48.00
2023-05-04T04:01:21.715Z,48.04
2023-05-04T04:02:21.778Z,48.11
2023-05-04T04:03:22.099Z,48.06
2023-05-04T04:04:21.744Z,48.31
2023-05-04T04:05:21.704Z,48.44
2023-05-04T04:06:21.697Z,48.53
2023-05-04T04:07:21.658Z,48.55
2023-05-04T04:08:21.668Z,48.51
2023-05-04T04:09:21.640Z,48.47
2023-05-04T04:10:21.671Z,48.39
2023-05-04T04:11:21.649Z,48.62
2023-05-04T04:12:21.637Z,48.55
2023-05-04T04:13:21.772Z,48.48
2023-05-04T04:14:21.612Z,48.33
2023-05-04T04:15:21.631Z,48.35
2023-05-04T04:16:21.732Z,48.25
2023-05-04T04:17:21.671Z,48.33
2023-05-04T04:18:21.590Z,48.48
2023-05-04T04:19:21.571Z,48.66
2023-05-04T04:20:21.565Z,48.90
2023-05-04T04:21:21.608Z,48.62
2023-05-04T04:22:21.579Z,48.60
2023-05-04T04:23:21.578Z,48.51
2023-05-04T04:24:21.545Z,48.48
2023-05-04T04:25:21.531Z,48.37
2023-05-04T04:26:21.570Z,48.27
2023-05-04T04:27:21.655Z,48.19
2023-05-04T04:28:21.634Z,48.23
2023-05-04T04:29:21.505Z,48.12
2023-05-04T04:30:21.495Z,48.29
2023-05-04T04:31:21.563Z,48.49
2023-05-04T04:32:21.472Z,48.62
2023-05-04T04:33:21.483Z,48.90
2023-05-04T04:34:21.464Z,48.92
2023-05-04T04:35:21.469Z,48.86
2023-05-04T04:36:21.462Z,48.60
2023-05-04T04:37:21.462Z,48.56
2023-05-04T04:38:21.462Z,48.62
2023-05-04T04:39:21.467Z,48.36
2023-05-04T04:40:21.416Z,48.45
2023-05-04T04:41:21.451Z,48.41
2023-05-04T04:42:21.486Z,48.51
2023-05-04T04:43:21.406Z,48.48
2023-05-04T04:44:21.434Z,48.58
2023-05-04T04:45:21.420Z,48.76
2023-05-04T04:46:21.447Z,48.81
2023-05-04T04:47:21.380Z,48.74
2023-05-04T04:48:21.404Z,48.80
2023-05-04T04:49:21.374Z,48.67
2023-05-04T04:50:21.364Z,48.59
2023-05-04T04:51:21.366Z,48.69
2023-05-04T04:52:21.392Z,48.62
2023-05-04T04:53:21.348Z,48.82
2023-05-04T04:54:21.347Z,48.81
2023-05-04T04:55:21.335Z,48.70
2023-05-04T04:56:21.329Z,48.92
2023-05-04T04:57:21.319Z,48.99
2023-05-04T04:58:21.287Z,48.97
2023-05-04T04:59:21.290Z,48.93
2023-05-04T05:00:21.286Z,49.07
2023-05-04T05:01:21.340Z,48.90
2023-05-04T05:02:21.267Z,48.85
2023-05-04T05:03:21.263Z,48.89
2023-05-04T05:04:21.270Z,49.05
2023-05-04T05:05:21.262Z,48.85
2023-05-04T05:06:21.256Z,48.86
2023-05-04T05:07:21.262Z,48.69
2023-05-04T05:08:21.273Z,48.95
2023-05-04T05:09:21.245Z,48.84
2023-05-04T05:10:21.262Z,48.77
2023-05-04T05:11:21.320Z,48.92
2023-05-04T05:12:22.473Z,48.73
2023-05-04T05:13:21.571Z,48.83
2023-05-04T05:14:21.497Z,48.78
2023-05-04T05:15:21.563Z,48.64
2023-05-04T05:16:21.647Z,48.86
2023-05-04T05:17:21.701Z,48.79
2023-05-04T05:18:21.742Z,48.91
2023-05-04T05:19:21.782Z,49.47
2023-05-04T05:20:21.836Z,49.37
2023-05-04T05:21:21.837Z,48.96
2023-05-04T05:22:21.808Z,48.34
2023-05-04T05:23:21.796Z,48.01
2023-05-04T05:24:21.838Z,47.82
2023-05-04T05:25:21.826Z,47.76
2023-05-04T05:26:21.806Z,47.43
2023-05-04T05:27:21.984Z,47.62
2023-05-04T05:28:21.778Z,47.83
2023-05-04T05:29:21.794Z,47.88
2023-05-04T05:30:21.760Z,47.93
2023-05-04T05:31:21.775Z,47.96
2023-05-04T05:32:21.741Z,47.87
2023-05-04T05:33:21.765Z,47.77
2023-05-04T05:34:21.730Z,47.60
2023-05-04T05:35:21.733Z,48.07
2023-05-04T05:36:21.705Z,47.89
2023-05-04T05:37:22.013Z,47.69
2023-05-04T05:38:21.829Z,47.83
2023-05-04T05:39:21.932Z,47.89
2023-05-04T05:40:21.932Z,48.14
2023-05-04T05:41:21.969Z,48.33
2023-05-04T05:42:22.538Z,48.23
2023-05-04T05:43:22.099Z,48.57
2023-05-04T05:44:22.165Z,48.52
2023-05-04T05:45:22.218Z,48.74
2023-05-04T05:46:22.362Z,48.71
2023-05-04T05:47:22.415Z,49.07
2023-05-04T05:48:22.394Z,48.58
2023-05-04T05:49:22.454Z,48.77
2023-05-04T05:50:22.494Z,48.88
2023-05-04T05:51:22.514Z,48.75
2023-05-04T05:52:22.577Z,48.39
2023-05-04T05:53:22.599Z,48.19
2023-05-04T05:54:22.633Z,48.29
2023-05-04T05:55:22.707Z,48.53
2023-05-04T05:56:22.714Z,48.61
2023-05-04T05:57:22.726Z,48.38
2023-05-04T05:58:22.782Z,48.27
2023-05-04T05:59:22.818Z,48.47
2023-05-04T06:00:22.841Z,48.54
2023-05-04T06:01:22.876Z,48.58
2023-05-04T06:02:23.033Z,48.46
2023-05-04T06:03:23.128Z,48.48
2023-05-04T06:04:23.004Z,48.67
2023-05-04T06:05:22.942Z,48.81
2023-05-04T06:06:22.980Z,48.81
2023-05-04T06:07:22.975Z,48.46
2023-05-04T06:08:22.958Z,48.07
2023-05-04T06:09:22.954Z,47.95
2023-05-04T06:10:22.981Z,47.90
2023-05-04T06:11:22.961Z,48.04
2023-05-04T06:12:22.960Z,47.74
2023-05-04T06:13:22.959Z,47.64
2023-05-04T06:14:23.045Z,47.45
2023-05-04T06:15:22.967Z,47.63
2023-05-04T06:16:23.053Z,47.65
2023-05-04T06:17:23.193Z,47.92
2023-05-04T06:18:23.072Z,48.04
2023-05-04T06:19:23.235Z,47.72
2023-05-04T06:20:23.216Z,47.35
2023-05-04T06:21:23.243Z,47.64
2023-05-04T06:22:23.354Z,47.73
2023-05-04T06:23:23.371Z,47.47
2023-05-04T06:24:23.415Z,47.44
2023-05-04T06:25:23.490Z,47.40
2023-05-04T06:26:23.527Z,47.32
2023-05-04T06:27:24.264Z,47.04
2023-05-04T06:28:24.024Z,47.15
2023-05-04T06:29:23.673Z,47.07
2023-05-04T06:30:23.709Z,47.28
2023-05-04T06:31:23.843Z,47.10
2023-05-04T06:32:24.037Z,46.91
2023-05-04T06:33:23.984Z,46.79
2023-05-04T06:34:23.980Z,47.10
2023-05-04T06:35:24.014Z,47.04
2023-05-04T06:36:24.084Z,47.20
2023-05-04T06:37:24.528Z,47.57
2023-05-04T06:38:24.183Z,47.28
2023-05-04T06:39:24.257Z,47.33
2023-05-04T06:40:24.246Z,47.29
2023-05-04T06:41:24.234Z,47.53
2023-05-04T06:42:24.235Z,47.75
2023-05-04T06:43:24.201Z,47.96
2023-05-04T06:44:24.226Z,47.76
2023-05-04T06:45:24.236Z,47.82
2023-05-04T06:46:24.224Z,47.83
2023-05-04T06:47:24.198Z,47.75
2023-05-04T06:48:24.179Z,47.55
2023-05-04T06:49:24.184Z,47.56
2023-05-04T06:50:24.193Z,46.95
2023-05-04T06:51:24.178Z,46.78
2023-05-04T06:52:24.174Z,46.39
2023-05-04T06:53:24.154Z,46.41
2023-05-04T06:54:24.153Z,46.62
2023-05-04T06:55:24.144Z,46.90
2023-05-04T06:56:24.132Z,46.97
2023-05-04T06:57:24.143Z,47.06
2023-05-04T06:58:24.134Z,47.14
2023-05-04T06:59:24.167Z,46.80
2023-05-04T07:00:24.127Z,46.78
2023-05-04T07:01:24.274Z,46.79
2023-05-04T07:02:24.197Z,47.02
2023-05-04T07:03:24.145Z,47.20
2023-05-04T07:04:24.135Z,47.40
2023-05-04T07:05:24.227Z,47.12
2023-05-04T07:06:24.280Z,46.91
2023-05-04T07:07:24.347Z,46.59
2023-05-04T07:08:24.410Z,46.56
2023-05-04T07:09:24.418Z,45.79
2023-05-04T07:10:24.495Z,44.87
2023-05-04T07:11:24.529Z,44.91
2023-05-04T07:12:24.631Z,45.32
2023-05-04T07:13:25.020Z,45.61
2023-05-04T07:14:24.690Z,45.84
2023-05-04T07:15:24.738Z,45.91
2023-05-04T07:16:24.801Z,45.98
2023-05-04T07:17:25.058Z,46.39
2023-05-04T07:18:24.873Z,46.73
2023-05-04T07:19:24.892Z,46.31
2023-05-04T07:20:26.042Z,46.15
2023-05-04T07:21:28.247Z,46.42
2023-05-04T07:22:24.956Z,46.02
2023-05-04T07:23:24.954Z,45.68
2023-05-04T07:24:24.974Z,45.31
2023-05-04T07:25:24.954Z,45.05
2023-05-04T07:26:24.936Z,44.93
2023-05-04T07:27:25.155Z,45.21
2023-05-04T07:28:24.931Z,44.46
2023-05-04T07:29:24.906Z,44.56
2023-05-04T07:30:24.933Z,44.36
2023-05-04T07:31:24.982Z,45.03
2023-05-04T07:32:25.169Z,45.34
2023-05-04T07:33:24.973Z,44.74
2023-05-04T07:34:34.021Z,44.53
2023-05-04T07:35:25.865Z,44.75
2023-05-04T07:36:24.883Z,44.80
2023-05-04T07:37:25.021Z,44.31
2023-05-04T07:38:25.139Z,43.90
2023-05-04T07:39:24.817Z,44.26
2023-05-04T07:40:24.838Z,44.35
2023-05-04T07:41:24.800Z,44.50
2023-05-04T07:42:25.016Z,44.25
2023-05-04T07:43:24.815Z,44.28
2023-05-04T07:44:24.865Z,44.33
2023-05-04T07:45:24.776Z,44.54
2023-05-04T07:46:24.794Z,45.02
2023-05-04T07:47:25.162Z,44.56
2023-05-04T07:48:26.669Z,44.32
2023-05-04T07:49:24.847Z,44.21
2023-05-04T07:50:24.798Z,43.33
2023-05-04T07:51:24.923Z,43.18
2023-05-04T07:52:24.752Z,43.06
2023-05-04T07:53:25.033Z,43.05
2023-05-04T07:54:24.749Z,42.93
2023-05-04T07:55:24.745Z,42.42
2023-05-04T07:56:24.713Z,42.40
2023-05-04T07:57:24.739Z,42.28
2023-05-04T07:58:25.018Z,41.93
2023-05-04T07:59:24.717Z,41.86
2023-05-04T08:00:24.731Z,42.27
2023-05-04T08:01:24.767Z,42.52
2023-05-04T08:02:24.892Z,42.34
2023-05-04T08:03:24.847Z,41.99
2023-05-04T08:04:24.787Z,42.10
2023-05-04T08:05:24.797Z,42.17
2023-05-04T08:06:24.799Z,42.54
2023-05-04T08:07:24.901Z,42.45
2023-05-04T08:08:25.038Z,41.99
2023-05-04T08:09:24.928Z,41.93
2023-05-04T08:10:25.022Z,43.19
2023-05-04T08:11:24.997Z,42.54
2023-05-04T08:12:25.101Z,42.29
2023-05-04T08:13:25.097Z,41.66
2023-05-04T08:14:25.110Z,41.84
2023-05-04T08:15:25.114Z,41.77
2023-05-04T08:16:25.095Z,41.82
2023-05-04T08:17:25.207Z,41.56
2023-05-04T08:18:25.170Z,41.55
2023-05-04T08:19:25.248Z,41.47
2023-05-04T08:20:25.308Z,42.24
2023-05-04T08:21:25.339Z,42.70
2023-05-04T08:22:25.379Z,41.45
2023-05-04T08:23:25.532Z,41.31
2023-05-04T08:24:25.526Z,41.45
2023-05-04T08:25:25.611Z,41.54
2023-05-04T08:26:25.674Z,42.02
2023-05-04T08:27:25.712Z,42.16
2023-05-04T08:28:25.833Z,41.80
2023-05-04T08:29:25.790Z,42.03
2023-05-04T08:30:25.813Z,43.57
2023-05-04T08:31:25.874Z,42.04
2023-05-04T08:32:25.920Z,41.65
2023-05-04T08:33:25.941Z,41.56
2023-05-04T08:34:25.975Z,41.50
2023-05-04T08:35:25.994Z,41.16
2023-05-04T08:36:26.046Z,42.19
2023-05-04T08:37:26.189Z,41.75
2023-05-04T08:38:26.098Z,41.80
2023-05-04T08:39:26.173Z,41.88
2023-05-04T08:40:26.175Z,42.06
2023-05-04T08:41:26.172Z,41.69
2023-05-04T08:42:26.209Z,41.76
2023-05-04T08:43:26.588Z,42.83
2023-05-04T08:44:26.296Z,42.97
2023-05-04T08:45:26.346Z,42.26
2023-05-04T08:46:26.324Z,41.87
2023-05-04T08:47:26.371Z,41.08
2023-05-04T08:48:26.378Z,40.82
2023-05-04T08:49:26.635Z,40.17
2023-05-04T08:50:26.494Z,39.75
2023-05-04T08:51:26.440Z,39.75
2023-05-04T08:52:26.503Z,39.56
2023-05-04T08:53:26.584Z,39.64
2023-05-04T08:54:26.492Z,39.82
2023-05-04T08:55:26.528Z,39.80
2023-05-04T08:56:26.529Z,39.78
2023-05-04T08:57:26.564Z,39.72
2023-05-04T08:58:26.553Z,39.67
2023-05-04T08:59:26.661Z,40.40
2023-05-04T09:00:26.622Z,39.17
2023-05-04T09:01:26.720Z,39.10
2023-05-04T09:02:26.677Z,38.85
2023-05-04T09:03:27.101Z,37.83
2023-05-04T09:04:28.633Z,38.27
2023-05-04T09:05:26.618Z,37.87
2023-05-04T09:06:26.599Z,37.26
2023-05-04T09:07:26.611Z,37.25
2023-05-04T09:08:27.067Z,37.00
2023-05-04T09:09:26.613Z,36.67
2023-05-04T09:10:29.413Z,36.52
2023-05-04T09:11:26.603Z,37.11
2023-05-04T09:12:26.583Z,37.34
2023-05-04T09:13:27.064Z,37.04
2023-05-04T09:14:26.540Z,37.95
2023-05-04T09:15:26.566Z,38.12
2023-05-04T09:16:26.738Z,37.96
2023-05-04T09:17:26.647Z,37.85
2023-05-04T09:18:26.656Z,37.88
2023-05-04T09:19:26.545Z,38.55
2023-05-04T09:20:26.504Z,37.85
2023-05-04T09:21:26.566Z,37.48
2023-05-04T09:22:28.244Z,37.98
2023-05-04T09:23:26.596Z,38.04
2023-05-04T09:24:26.515Z,37.33
2023-05-04T09:25:26.506Z,37.35
2023-05-04T09:26:26.528Z,37.43
2023-05-04T09:27:26.572Z,37.62
2023-05-04T09:28:28.834Z,36.72
2023-05-04T09:29:26.646Z,36.70
2023-05-04T09:30:26.801Z,37.54
2023-05-04T09:31:26.826Z,37.73
2023-05-04T09:32:26.813Z,37.65
2023-05-04T09:33:27.063Z,37.71
2023-05-04T09:34:26.819Z,37.72
2023-05-04T09:35:33.218Z,37.12
2023-05-04T09:36:27.842Z,36.79
2023-05-04T09:37:26.821Z,36.93
2023-05-04T09:38:26.846Z,37.27
2023-05-04T09:39:26.814Z,38.09
2023-05-04T09:40:26.817Z,37.95
2023-05-04T09:41:26.775Z,37.33
2023-05-04T09:42:26.948Z,37.40
2023-05-04T09:43:26.779Z,36.72
2023-05-04T09:44:29.382Z,37.26
2023-05-04T09:45:26.755Z,37.68
2023-05-04T09:46:26.785Z,37.24
2023-05-04T09:47:26.789Z,37.50
2023-05-04T09:48:26.838Z,38.47
2023-05-04T09:49:26.725Z,37.91
2023-05-04T09:50:26.770Z,36.90
2023-05-04T09:51:26.837Z,36.65
2023-05-04T09:52:26.717Z,36.77
2023-05-04T09:53:27.096Z,36.22
2023-05-04T09:54:26.688Z,36.56
2023-05-04T09:55:26.704Z,36.22
2023-05-04T09:56:26.694Z,36.18
2023-05-04T09:57:26.686Z,35.61
2023-05-04T09:58:27.245Z,35.55
2023-05-04T09:59:26.695Z,36.32
2023-05-04T10:00:26.659Z,35.91
2023-05-04T10:01:26.720Z,36.03
2023-05-04T10:02:26.688Z,37.06
2023-05-04T10:03:26.634Z,37.13
2023-05-04T10:04:26.670Z,38.23
2023-05-04T10:05:26.673Z,37.68
2023-05-04T10:06:26.616Z,37.27
2023-05-04T10:07:26.625Z,37.20
2023-05-04T10:08:26.637Z,37.27
2023-05-04T10:09:26.655Z,39.30
2023-05-04T10:10:26.589Z,39.45
2023-05-04T10:11:26.582Z,38.44
2023-05-04T10:12:26.600Z,39.15
2023-05-04T10:13:26.664Z,39.19
2023-05-04T10:14:26.558Z,39.08
2023-05-04T10:15:26.599Z,38.52
2023-05-04T10:16:26.598Z,37.47
2023-05-04T10:17:26.598Z,38.18
2023-05-04T10:18:26.531Z,38.97
2023-05-04T10:19:26.554Z,37.60
2023-05-04T10:20:26.530Z,36.49
2023-05-04T10:21:26.512Z,37.74
2023-05-04T10:22:26.519Z,36.39
2023-05-04T10:23:26.563Z,37.04
2023-05-04T10:24:26.574Z,37.44
2023-05-04T10:25:26.517Z,37.12
2023-05-04T10:26:26.590Z,37.78
2023-05-04T10:27:26.527Z,38.40
2023-05-04T10:28:26.472Z,37.56
2023-05-04T10:29:26.526Z,37.27
2023-05-04T10:30:26.468Z,36.70
2023-05-04T10:31:26.542Z,36.13
2023-05-04T10:32:26.469Z,35.75
2023-05-04T10:33:26.466Z,35.10
2023-05-04T10:34:26.568Z,35.89
2023-05-04T10:35:26.454Z,37.08
2023-05-04T10:36:26.470Z,38.24
2023-05-04T10:37:26.444Z,36.99
2023-05-04T10:38:26.408Z,36.76
2023-05-04T10:39:26.459Z,37.07
2023-05-04T10:40:26.450Z,36.50
2023-05-04T10:41:26.518Z,35.38
2023-05-04T10:42:26.523Z,35.20
2023-05-04T10:43:26.640Z,35.47
2023-05-04T10:44:27.089Z,36.67
2023-05-04T10:45:26.656Z,36.67
2023-05-04T10:46:26.678Z,34.86
2023-05-04T10:47:26.770Z,35.92
2023-05-04T10:48:26.760Z,36.66
2023-05-04T10:49:27.065Z,36.02
2023-05-04T10:50:26.876Z,34.75
2023-05-04T10:51:35.648Z,34.37
2023-05-04T10:52:27.874Z,36.53
2023-05-04T10:53:26.861Z,36.03
2023-05-04T10:54:27.071Z,36.84
2023-05-04T10:55:26.838Z,34.47
2023-05-04T10:56:26.851Z,34.79
2023-05-04T10:57:26.849Z,35.11
2023-05-04T10:58:26.804Z,35.50
2023-05-04T10:59:27.071Z,33.82
2023-05-04T11:00:26.811Z,34.37
2023-05-04T11:01:26.854Z,34.64
2023-05-04T11:02:26.971Z,33.62
2023-05-04T11:03:26.921Z,33.60
2023-05-04T11:04:27.095Z,33.36
2023-05-04T11:05:26.785Z,34.72
2023-05-04T11:06:26.809Z,34.70
2023-05-04T11:07:26.834Z,34.47
2023-05-04T11:08:26.881Z,35.33
2023-05-04T11:09:26.886Z,34.06
2023-05-04T11:10:26.902Z,32.80
2023-05-04T11:11:26.956Z,33.29
2023-05-04T11:12:26.944Z,35.60
2023-05-04T11:13:27.073Z,35.10
2023-05-04T11:14:27.200Z,34.69
2023-05-04T11:15:27.110Z,35.04
2023-05-04T11:16:27.223Z,34.42
2023-05-04T11:17:28.508Z,34.15
2023-05-04T11:18:27.076Z,33.70
2023-05-04T11:19:27.042Z,34.43
2023-05-04T11:20:27.169Z,34.46
2023-05-04T11:21:27.046Z,33.82
2023-05-04T11:22:27.071Z,34.58
2023-05-04T11:23:27.094Z,33.97
2023-05-04T11:24:27.068Z,33.98
2023-05-04T11:25:27.064Z,34.66
2023-05-04T11:26:27.083Z,34.56
2023-05-04T11:27:27.093Z,34.32
2023-05-04T11:28:27.103Z,33.88
2023-05-04T11:29:27.088Z,32.30
2023-05-04T11:30:27.140Z,31.73
2023-05-04T11:31:27.172Z,32.31
2023-05-04T11:32:27.222Z,33.54
2023-05-04T11:33:27.226Z,32.84
2023-05-04T11:34:27.195Z,32.52
2023-05-04T11:35:27.234Z,32.67
2023-05-04T11:36:27.272Z,31.17
2023-05-04T11:37:27.423Z,30.29
2023-05-04T11:38:27.381Z,28.17
2023-05-04T11:39:27.446Z,29.35
2023-05-04T11:40:27.517Z,28.57
2023-05-04T11:41:27.547Z,28.78
2023-05-04T11:42:27.582Z,29.39
2023-05-04T11:43:27.663Z,33.64
2023-05-04T11:44:27.721Z,32.16
2023-05-04T11:45:27.744Z,32.15
2023-05-04T11:46:27.797Z,30.88
2023-05-04T11:47:27.904Z,31.01
2023-05-04T11:48:27.920Z,30.06
2023-05-04T11:49:27.977Z,32.03
2023-05-04T11:50:28.009Z,32.02
2023-05-04T11:51:28.019Z,31.03
2023-05-04T11:52:28.074Z,30.48
2023-05-04T11:53:28.176Z,30.38
2023-05-04T11:54:28.191Z,31.03
2023-05-04T11:55:28.249Z,31.28
2023-05-04T11:56:28.296Z,30.59
2023-05-04T11:57:28.357Z,30.58
2023-05-04T11:58:28.424Z,31.12
2023-05-04T11:59:28.468Z,31.26
2023-05-04T12:00:28.508Z,30.46
2023-05-04T12:01:28.535Z,32.56
2023-05-04T12:02:28.618Z,31.27
2023-05-04T12:03:35.963Z,29.91
2023-05-04T12:04:29.586Z,30.50
2023-05-04T12:05:28.637Z,30.47
2023-05-04T12:06:28.566Z,30.20
2023-05-04T12:07:28.562Z,29.49
2023-05-04T12:08:28.532Z,29.68
2023-05-04T12:09:28.568Z,32.68
2023-05-04T12:10:28.546Z,29.85
2023-05-04T12:11:28.523Z,29.38
2023-05-04T12:12:28.530Z,28.48
2023-05-04T12:13:28.518Z,29.49
2023-05-04T12:14:28.510Z,30.29
2023-05-04T12:15:28.483Z,30.73
2023-05-04T12:16:28.529Z,30.43
2023-05-04T12:17:28.492Z,30.85
2023-05-04T12:18:28.482Z,29.44
2023-05-04T12:19:28.471Z,28.17
2023-05-04T12:20:28.473Z,28.92
2023-05-04T12:21:28.466Z,28.45
2023-05-04T12:22:28.450Z,28.38
2023-05-04T12:23:28.462Z,28.96
2023-05-04T12:24:28.456Z,29.05
2023-05-04T12:25:28.417Z,30.34
2023-05-04T12:26:28.490Z,27.47
2023-05-04T12:27:28.509Z,28.74
2023-05-04T12:28:28.578Z,28.68
2023-05-04T12:29:28.637Z,28.42
2023-05-04T12:30:28.686Z,27.75
2023-05-04T12:31:28.796Z,28.08
2023-05-04T12:32:28.855Z,29.13
2023-05-04T12:33:28.874Z,27.86
2023-05-04T12:34:28.960Z,27.53
2023-05-04T12:35:28.972Z,27.65
2023-05-04T12:36:28.987Z,27.70
2023-05-04T12:37:29.043Z,27.44
2023-05-04T12:38:29.079Z,26.91
2023-05-04T12:39:29.097Z,26.51
2023-05-04T12:40:29.197Z,26.70
2023-05-04T12:41:29.160Z,27.12
2023-05-04T12:42:29.205Z,26.75
2023-05-04T12:43:29.216Z,26.89
2023-05-04T12:44:29.258Z,28.61
2023-05-04T12:45:29.255Z,27.81
2023-05-04T12:46:29.397Z,27.66
2023-05-04T12:47:29.319Z,27.26
2023-05-04T12:48:29.281Z,27.89
2023-05-04T12:49:29.310Z,26.82
2023-05-04T12:50:29.291Z,27.12
2023-05-04T12:51:29.274Z,27.97
2023-05-04T12:52:29.330Z,27.53